createdAt,value
2018-06-19T00:01:25.778Z,63.30
2018-06-19T00:03:54.518Z,62.58
2018-06-19T00:06:23.919Z,62.62
2018-06-19T00:08:52.502Z,64.47
2018-06-19T00:11:21.189Z,65.80
2018-06-19T00:13:49.714Z,65.49
2018-06-19T00:16:18.910Z,65.80
2018-06-19T00:18:50.943Z,66.20
2018-06-19T00:21:37.528Z,66.39
2018-06-19T00:24:06.145Z,66.55
2018-06-19T00:26:34.714Z,66.48
2018-06-19T00:29:03.386Z,67.25
2018-06-19T00:31:32.114Z,66.62
2018-06-19T00:34:00.699Z,67.02
2018-06-19T00:36:29.494Z,67.10
2018-06-19T00:38:58.129Z,66.17
2018-06-19T00:41:27.429Z,66.37
2018-06-19T00:43:56.011Z,67.11
2018-06-19T00:46:26.652Z,66.59
2018-06-19T00:48:55.531Z,66.99
2018-06-19T00:51:24.216Z,67.23
2018-06-19T00:53:53.158Z,67.51
2018-06-19T00:57:00.903Z,67.49
2018-06-19T00:59:29.602Z,66.87
2018-06-19T01:02:00.123Z,66.52
2018-06-19T01:04:28.859Z,66.81
2018-06-19T01:06:57.492Z,66.86
2018-06-19T01:09:26.114Z,66.83
2018-06-19T01:11:54.778Z,66.51
2018-06-19T01:14:23.445Z,67.08
2018-06-19T01:16:52.050Z,67.75
2018-06-19T01:19:20.715Z,67.64
2018-06-19T01:21:49.338Z,66.97
2018-06-19T01:24:17.838Z,66.58
2018-06-19T01:26:46.402Z,67.03
2018-06-19T01:29:15.051Z,67.07
2018-06-19T01:31:43.733Z,66.67
2018-06-19T01:34:12.424Z,66.89
2018-06-19T01:36:41.103Z,66.74
2018-06-19T01:39:10.870Z,66.89
2018-06-19T01:41:39.498Z,67.38
2018-06-19T01:44:08.127Z,67.56
2018-06-19T01:46:36.706Z,67.71
2018-06-19T01:49:05.430Z,67.87
2018-06-19T01:51:34.013Z,67.50
2018-06-19T01:54:02.616Z,67.86
2018-06-19T01:56:31.206Z,67.98
2018-06-19T01:58:59.714Z,67.56
2018-06-19T02:01:28.366Z,67.75
2018-06-19T02:03:56.905Z,67.74
2018-06-19T02:06:25.562Z,67.80
2018-06-19T02:08:54.262Z,67.65
2018-06-19T02:11:22.902Z,67.32
2018-06-19T02:13:51.528Z,66.99
2018-06-19T02:16:20.143Z,66.88
2018-06-19T02:18:48.688Z,66.79
2018-06-19T02:21:17.370Z,67.17
2018-06-19T02:23:45.917Z,67.57
2018-06-19T02:26:14.604Z,67.04
2018-06-19T02:28:43.206Z,66.26
2018-06-19T02:31:11.815Z,66.37
2018-06-19T02:33:40.458Z,66.66
2018-06-19T02:36:09.082Z,66.98
2018-06-19T02:38:37.726Z,67.33
2018-06-19T02:41:06.359Z,65.83
2018-06-19T02:43:35.092Z,65.48
2018-06-19T02:46:03.822Z,65.21
2018-06-19T02:48:32.463Z,65.75
2018-06-19T02:51:01.051Z,66.36
2018-06-19T02:53:29.717Z,65.96
2018-06-19T02:55:58.430Z,66.06
2018-06-19T02:58:27.014Z,66.38
2018-06-19T03:00:56.514Z,66.20
2018-06-19T03:03:25.066Z,66.09
2018-06-19T03:05:53.771Z,66.28
2018-06-19T03:08:22.294Z,66.50
2018-06-19T03:10:50.833Z,66.63
2018-06-19T03:13:19.523Z,66.66
2018-06-19T03:15:48.058Z,67.36
2018-06-19T03:18:16.685Z,67.61
2018-06-19T03:20:45.336Z,67.54
2018-06-19T03:23:13.913Z,68.16
2018-06-19T03:25:42.536Z,69.10
2018-06-19T03:28:11.142Z,68.64
2018-06-19T03:30:39.746Z,69.16
2018-06-19T03:33:08.496Z,68.84
2018-06-19T03:35:37.234Z,68.10
2018-06-19T03:38:05.899Z,67.94
2018-06-19T03:40:34.520Z,68.04
2018-06-19T03:43:03.147Z,68.72
2018-06-19T03:45:31.710Z,68.68
2018-06-19T03:48:00.335Z,67.73
2018-06-19T03:50:28.863Z,67.76
2018-06-19T03:52:57.462Z,67.81
2018-06-19T03:55:25.990Z,68.62
2018-06-19T03:57:54.625Z,69.27
2018-06-19T04:00:23.312Z,68.82
2018-06-19T04:02:52.345Z,68.55
2018-06-19T04:05:20.952Z,68.82
2018-06-19T04:07:49.474Z,69.71
2018-06-19T04:10:18.088Z,70.44
2018-06-19T04:12:46.739Z,69.68
2018-06-19T04:15:15.376Z,69.94
2018-06-19T04:17:43.946Z,69.48
2018-06-19T04:20:12.945Z,70.03
2018-06-19T04:22:41.580Z,69.75
2018-06-19T04:25:10.163Z,69.95
2018-06-19T04:27:38.849Z,70.45
2018-06-19T04:30:07.534Z,70.19
2018-06-19T04:32:36.163Z,70.14
2018-06-19T04:35:04.822Z,70.32
2018-06-19T04:37:33.384Z,70.86
2018-06-19T04:40:01.928Z,69.49
2018-06-19T04:42:30.524Z,69.51
2018-06-19T04:44:59.054Z,69.87
2018-06-19T04:47:27.914Z,71.33
2018-06-19T04:49:56.418Z,71.02
2018-06-19T04:52:25.010Z,70.79
2018-06-19T04:54:53.672Z,70.29
2018-06-19T04:57:22.790Z,69.78
2018-06-19T04:59:51.458Z,70.88
2018-06-19T05:02:19.958Z,70.28
2018-06-19T05:04:49.332Z,70.25
2018-06-19T05:07:17.826Z,69.91
2018-06-19T05:09:46.505Z,70.04
2018-06-19T05:12:15.695Z,69.78
2018-06-19T05:14:44.223Z,69.99
2018-06-19T05:17:13.427Z,69.29
2018-06-19T05:19:42.059Z,69.91
2018-06-19T05:22:10.641Z,69.55
2018-06-19T05:24:39.258Z,69.49
2018-06-19T05:27:07.826Z,69.58
2018-06-19T05:29:36.328Z,69.50
2018-06-19T05:32:04.886Z,69.74
2018-06-19T05:34:33.543Z,69.80
2018-06-19T05:37:02.082Z,69.86
2018-06-19T05:39:30.823Z,69.25
2018-06-19T05:41:59.326Z,68.81
2018-06-19T05:44:27.934Z,69.33
2018-06-19T05:46:56.572Z,69.99
2018-06-19T05:49:25.257Z,69.88
2018-06-19T05:51:53.798Z,69.70
2018-06-19T05:54:22.833Z,69.93
2018-06-19T05:56:51.667Z,70.24
2018-06-19T05:59:20.242Z,70.52
2018-06-19T06:01:48.888Z,70.06
2018-06-19T06:04:17.574Z,69.66
2018-06-19T06:06:46.194Z,69.96
2018-06-19T06:09:14.842Z,69.88
2018-06-19T06:11:43.324Z,70.24
2018-06-19T06:14:11.869Z,70.57
2018-06-19T06:16:40.468Z,69.68
2018-06-19T06:19:09.006Z,69.48
2018-06-19T06:21:37.630Z,68.97
2018-06-19T06:24:06.127Z,69.36
2018-06-19T06:26:34.819Z,68.22
2018-06-19T06:29:03.710Z,68.64
2018-06-19T06:31:33.215Z,68.19
2018-06-19T06:34:02.882Z,68.31
2018-06-19T06:36:31.518Z,68.21
2018-06-19T06:39:00.147Z,67.31
2018-06-19T06:41:28.696Z,68.95
2018-06-19T06:43:57.357Z,68.13
2018-06-19T06:46:26.584Z,68.31
2018-06-19T06:48:55.855Z,69.20
2018-06-19T06:51:24.456Z,68.25
2018-06-19T06:53:53.578Z,68.47
2018-06-19T06:56:22.676Z,69.07
2018-06-19T06:58:51.209Z,69.87
2018-06-19T07:01:20.355Z,70.33
2018-06-19T07:03:48.876Z,70.49
2018-06-19T07:06:17.681Z,70.61
2018-06-19T07:08:46.275Z,69.95
2018-06-19T07:11:14.870Z,68.51
2018-06-19T07:13:43.482Z,68.14
2018-06-19T07:16:12.110Z,67.40
2018-06-19T07:18:40.799Z,66.10
2018-06-19T07:21:09.334Z,65.47
2018-06-19T07:23:37.962Z,65.60
2018-06-19T07:26:06.600Z,64.91
2018-06-19T07:28:35.228Z,64.21
2018-06-19T07:31:03.930Z,63.15
2018-06-19T07:33:32.546Z,64.40
2018-06-19T07:36:01.074Z,64.21
2018-06-19T07:38:29.663Z,64.28
2018-06-19T07:40:58.165Z,62.28
2018-06-19T07:43:26.833Z,63.34
2018-06-19T07:45:55.426Z,64.19
2018-06-19T07:48:24.054Z,63.74
2018-06-19T07:50:52.577Z,63.48
2018-06-19T07:53:21.167Z,63.95
2018-06-19T07:55:50.606Z,64.18
2018-06-19T07:58:19.176Z,64.25
2018-06-19T08:00:47.829Z,63.97
2018-06-19T08:03:16.434Z,62.63
2018-06-19T08:05:45.055Z,62.28
2018-06-19T08:08:13.603Z,61.54
2018-06-19T08:10:42.470Z,62.91
2018-06-19T08:13:11.074Z,63.52
2018-06-19T08:15:40.240Z,62.62
2018-06-19T08:18:08.905Z,61.55
2018-06-19T08:20:37.520Z,61.15
2018-06-19T08:23:06.145Z,59.16
2018-06-19T08:25:34.788Z,58.84
2018-06-19T08:28:03.472Z,58.07
2018-06-19T08:30:31.959Z,55.14
2018-06-19T08:33:00.533Z,56.16
2018-06-19T08:35:29.114Z,56.56
2018-06-19T08:37:57.712Z,56.50
2018-06-19T08:40:26.354Z,55.55
2018-06-19T08:42:54.874Z,55.86
2018-06-19T08:45:23.627Z,56.56
2018-06-19T08:47:52.235Z,54.63
2018-06-19T08:50:20.962Z,56.33
2018-06-19T08:52:49.608Z,55.14
2018-06-19T08:55:18.307Z,55.15
2018-06-19T08:57:46.891Z,56.36
2018-06-19T09:00:15.979Z,57.37
2018-06-19T09:02:44.594Z,58.17
2018-06-19T09:05:13.450Z,55.47
2018-06-19T09:07:42.078Z,57.09
2018-06-19T09:10:10.587Z,57.23
2018-06-19T09:12:39.102Z,56.65
2018-06-19T09:15:07.756Z,57.54
2018-06-19T09:17:36.868Z,55.90
2018-06-19T09:20:05.759Z,55.28
2018-06-19T09:22:34.242Z,55.62
2018-06-19T09:25:02.924Z,55.83
2018-06-19T09:27:31.949Z,56.77
2018-06-19T09:30:00.522Z,56.44
2018-06-19T09:32:29.106Z,54.77
2018-06-19T09:34:57.683Z,54.67
2018-06-19T09:37:26.296Z,55.41
2018-06-19T09:39:54.835Z,55.66
2018-06-19T09:42:23.438Z,54.41
2018-06-19T09:44:52.018Z,55.83
2018-06-19T09:47:20.535Z,51.79
2018-06-19T09:49:49.112Z,52.35
2018-06-19T09:52:17.752Z,51.38
2018-06-19T09:54:46.483Z,51.90
2018-06-19T09:57:15.030Z,51.81
2018-06-19T09:59:44.210Z,49.48
2018-06-19T10:02:13.390Z,50.61
2018-06-19T10:04:41.988Z,50.14
2018-06-19T10:07:10.678Z,49.28
2018-06-19T10:09:39.272Z,50.93
2018-06-19T10:12:07.946Z,51.65
2018-06-19T10:14:36.617Z,51.54
2018-06-19T10:17:05.318Z,51.54
2018-06-19T10:19:33.972Z,49.04
2018-06-19T10:22:03.023Z,47.44
2018-06-19T10:24:32.395Z,45.35
2018-06-19T10:27:00.979Z,45.98
2018-06-19T10:29:29.675Z,45.90
2018-06-19T10:31:58.298Z,47.34
2018-06-19T10:34:27.647Z,48.04
2018-06-19T10:36:56.246Z,46.41
2018-06-19T10:39:24.813Z,45.76
2018-06-19T10:41:53.368Z,46.03
2018-06-19T10:44:22.810Z,48.34
2018-06-19T10:46:51.437Z,46.62
2018-06-19T10:49:20.070Z,46.35
2018-06-19T10:51:48.650Z,46.40
2018-06-19T10:54:17.246Z,47.24
2018-06-19T10:56:45.862Z,48.07
2018-06-19T10:59:14.451Z,47.29
2018-06-19T11:01:43.083Z,46.31
2018-06-19T11:04:11.691Z,47.49
2018-06-19T11:06:40.352Z,47.81
2018-06-19T11:09:10.633Z,48.05
2018-06-19T11:11:39.890Z,47.84
2018-06-19T11:14:08.596Z,47.84
2018-06-19T11:16:37.243Z,48.27
2018-06-19T11:19:05.928Z,47.89
2018-06-19T11:21:35.228Z,48.55
2018-06-19T11:24:04.680Z,48.03
2018-06-19T11:26:33.150Z,47.86
2018-06-19T11:29:01.776Z,48.08
2018-06-19T11:31:30.383Z,47.66
2018-06-19T11:33:59.002Z,47.25
2018-06-19T11:36:27.551Z,47.29
2018-06-19T11:38:56.174Z,48.39
2018-06-19T11:41:24.705Z,48.47
2018-06-19T11:43:53.303Z,48.26
2018-06-19T11:46:21.947Z,47.57
2018-06-19T11:48:50.518Z,48.30
2018-06-19T11:51:19.257Z,49.29
2018-06-19T11:53:48.403Z,48.77
2018-06-19T11:56:17.026Z,49.07
2018-06-19T11:58:45.675Z,47.05
2018-06-19T12:01:14.942Z,46.63
2018-06-19T12:03:43.942Z,44.14
2018-06-19T12:06:12.531Z,44.95
2018-06-19T12:08:41.083Z,45.28
2018-06-19T12:11:09.814Z,45.61
2018-06-19T12:13:38.466Z,47.35
2018-06-19T12:16:07.123Z,46.19
2018-06-19T12:18:35.706Z,44.69
2018-06-19T12:21:04.350Z,43.48
2018-06-19T12:23:32.922Z,44.60
2018-06-19T12:26:01.449Z,44.02
2018-06-19T12:28:30.139Z,44.58
2018-06-19T12:30:59.582Z,44.05
2018-06-19T12:33:28.228Z,43.97
2018-06-19T12:35:57.037Z,44.02
2018-06-19T12:38:25.626Z,44.12
2018-06-19T12:40:54.222Z,43.73
2018-06-19T12:43:22.806Z,44.54
2018-06-19T12:45:52.023Z,44.25
2018-06-19T12:48:20.649Z,43.83
2018-06-19T12:52:02.486Z,44.02
2018-06-19T12:54:42.550Z,44.95
2018-06-19T12:57:11.194Z,44.73
2018-06-19T12:59:40.506Z,44.56
2018-06-19T13:02:09.987Z,44.72
2018-06-19T13:04:49.629Z,45.84
2018-06-19T13:07:18.255Z,45.33
2018-06-19T13:09:46.898Z,43.90
2018-06-19T13:12:26.764Z,45.05
2018-06-19T13:14:55.358Z,44.58
2018-06-19T13:17:35.077Z,46.01
2018-06-19T13:20:15.745Z,45.13
2018-06-19T13:22:44.462Z,45.12
2018-06-19T13:25:13.115Z,46.09
2018-06-19T13:27:41.770Z,44.56
2018-06-19T13:30:21.538Z,44.04
2018-06-19T13:32:53.704Z,44.66
2018-06-19T13:35:22.441Z,44.66
2018-06-19T13:37:54.251Z,43.46
2018-06-19T13:41:35.784Z,42.82
2018-06-19T13:44:15.559Z,43.96
2018-06-19T13:46:44.094Z,43.66
2018-06-19T13:49:12.802Z,42.53
2018-06-19T13:51:41.357Z,42.15
2018-06-19T13:54:09.906Z,42.50
2018-06-19T13:57:53.848Z,43.39
2018-06-19T14:00:22.943Z,43.15
2018-06-19T14:02:51.483Z,42.67
2018-06-19T14:05:21.053Z,43.62
2018-06-19T14:08:03.644Z,43.41
2018-06-19T14:10:48.266Z,44.09
2018-06-19T14:13:17.521Z,44.68
2018-06-19T14:15:47.407Z,43.18
2018-06-19T14:18:17.011Z,44.73
2018-06-19T14:20:46.419Z,44.97
2018-06-19T14:23:15.386Z,44.38
2018-06-19T14:25:43.942Z,44.50
2018-06-19T14:28:12.483Z,45.04
2018-06-19T14:30:41.889Z,45.55
2018-06-19T14:33:10.556Z,44.72
2018-06-19T14:35:39.483Z,46.22
2018-06-19T14:38:08.896Z,46.57
2018-06-19T14:40:37.478Z,47.41
2018-06-19T14:43:07.069Z,47.80
2018-06-19T14:45:36.203Z,45.98
2018-06-19T14:48:04.951Z,45.31
2018-06-19T14:50:34.212Z,45.77
2018-06-19T14:53:02.936Z,45.73
2018-06-19T14:55:31.502Z,45.83
2018-06-19T14:58:00.625Z,43.47
2018-06-19T15:00:29.401Z,42.81
2018-06-19T15:02:57.987Z,42.19
2018-06-19T15:05:26.669Z,42.60
2018-06-19T15:07:56.020Z,42.38
2018-06-19T15:10:24.781Z,42.70
2018-06-19T15:12:53.546Z,42.85
2018-06-19T15:15:22.130Z,43.15
2018-06-19T15:17:52.040Z,42.81
2018-06-19T15:20:20.830Z,43.15
2018-06-19T15:22:49.426Z,43.62
2018-06-19T15:25:17.959Z,43.88
2018-06-19T15:27:46.628Z,43.96
2018-06-19T15:30:15.742Z,45.23
2018-06-19T15:32:44.360Z,45.20
2018-06-19T15:35:13.107Z,42.82
2018-06-19T15:37:41.772Z,42.43
2018-06-19T15:40:10.862Z,44.63
2018-06-19T15:42:39.554Z,44.82
2018-06-19T15:45:08.192Z,43.47
2018-06-19T15:47:36.734Z,43.92
2018-06-19T15:50:05.875Z,44.00
2018-06-19T15:52:34.508Z,44.44
2018-06-19T15:55:03.173Z,44.40
2018-06-19T15:57:31.838Z,44.19
2018-06-19T16:00:00.834Z,44.78
2018-06-19T16:02:30.583Z,44.69
2018-06-19T16:04:59.725Z,45.06
2018-06-19T16:07:28.937Z,45.11
2018-06-19T16:09:57.606Z,46.04
2018-06-19T16:12:26.118Z,46.98
2018-06-19T16:14:55.393Z,47.09
2018-06-19T16:17:24.687Z,47.11
2018-06-19T16:19:53.830Z,47.14
2018-06-19T16:22:22.347Z,46.89
2018-06-19T16:24:50.854Z,46.39
2018-06-19T16:27:19.413Z,46.66
2018-06-19T16:29:48.066Z,47.60
2018-06-19T16:32:16.621Z,46.99
2018-06-19T16:34:46.099Z,46.30
2018-06-19T16:37:14.590Z,46.26
2018-06-19T16:39:43.248Z,47.20
2018-06-19T16:42:13.218Z,47.58
2018-06-19T16:44:41.862Z,47.80
2018-06-19T16:47:11.147Z,47.22
2018-06-19T16:49:39.752Z,46.60
2018-06-19T16:52:08.314Z,46.93
2018-06-19T16:54:36.913Z,46.63
2018-06-19T16:57:05.599Z,46.54
2018-06-19T16:59:34.110Z,46.66
2018-06-19T17:02:02.763Z,47.65
2018-06-19T17:04:31.447Z,48.15
2018-06-19T17:06:59.946Z,48.42
2018-06-19T17:09:28.567Z,47.86
2018-06-19T17:11:57.114Z,48.07
2018-06-19T17:14:25.797Z,47.31
2018-06-19T17:16:54.623Z,47.74
2018-06-19T17:19:23.949Z,48.65
2018-06-19T17:21:52.458Z,49.88
2018-06-19T17:24:21.489Z,51.29
2018-06-19T17:26:50.128Z,50.79
2018-06-19T17:29:18.812Z,50.79
2018-06-19T17:31:47.376Z,50.99
2018-06-19T17:34:16.798Z,50.70
2018-06-19T17:36:45.378Z,50.73
2018-06-19T17:39:13.978Z,50.57
2018-06-19T17:41:42.539Z,51.14
2018-06-19T17:44:11.725Z,51.99
2018-06-19T17:46:41.094Z,51.76
2018-06-19T17:49:09.782Z,51.50
2018-06-19T17:51:40.155Z,51.58
2018-06-19T17:54:08.839Z,51.77
2018-06-19T17:56:37.994Z,52.39
2018-06-19T17:59:06.670Z,52.19
2018-06-19T18:01:35.202Z,51.87
2018-06-19T18:04:03.785Z,51.87
2018-06-19T18:06:32.386Z,51.95
2018-06-19T18:09:01.090Z,51.95
2018-06-19T18:11:29.635Z,51.69
2018-06-19T18:13:58.182Z,51.63
2018-06-19T18:16:26.716Z,52.30
2018-06-19T18:18:55.896Z,52.51
2018-06-19T18:21:25.555Z,52.70
2018-06-19T18:23:55.175Z,53.06
2018-06-19T18:26:23.901Z,53.09
2018-06-19T18:28:52.635Z,53.12
2018-06-19T18:31:21.268Z,53.35
2018-06-19T18:33:49.953Z,53.62
2018-06-19T18:36:20.633Z,53.64
2018-06-19T18:38:49.708Z,52.69
2018-06-19T18:41:18.370Z,53.63
2018-06-19T18:43:47.055Z,54.05
2018-06-19T18:46:15.987Z,53.85
2018-06-19T18:48:44.814Z,53.70
2018-06-19T18:51:13.542Z,54.76
2018-06-19T18:53:43.019Z,55.47
2018-06-19T18:56:11.571Z,54.99
2018-06-19T18:58:40.800Z,54.93
2018-06-19T19:01:09.382Z,55.93
2018-06-19T19:03:37.943Z,55.74
2018-06-19T19:06:06.505Z,56.44
2018-06-19T19:08:35.136Z,54.46
2018-06-19T19:11:03.762Z,53.86
2018-06-19T19:13:32.889Z,53.78
2018-06-19T19:16:06.569Z,54.15
2018-06-19T19:18:40.521Z,54.58
2018-06-19T19:21:09.840Z,54.61
2018-06-19T19:23:38.422Z,54.68
2018-06-19T19:26:07.514Z,55.59
2018-06-19T19:28:41.403Z,56.42
2018-06-19T19:31:09.938Z,56.42
2018-06-19T19:33:38.494Z,56.17
2018-06-19T19:36:07.158Z,56.85
2018-06-19T19:38:40.885Z,57.41
2018-06-19T19:41:09.646Z,57.67
2018-06-19T19:43:38.232Z,58.36
2018-06-19T19:46:06.908Z,58.01
2018-06-19T19:48:40.671Z,57.80
2018-06-19T19:51:09.918Z,57.61
2018-06-19T19:53:38.602Z,58.05
2018-06-19T19:56:12.407Z,58.49
2018-06-19T19:58:46.266Z,58.69
2018-06-19T20:01:14.898Z,58.66
2018-06-19T20:03:44.223Z,58.93
2018-06-19T20:06:12.779Z,59.99
2018-06-19T20:08:41.424Z,59.96
2018-06-19T20:11:10.025Z,59.70
2018-06-19T20:13:38.631Z,59.58
2018-06-19T20:16:07.560Z,60.21
2018-06-19T20:18:36.209Z,60.82
2018-06-19T20:21:05.609Z,59.90
2018-06-19T20:23:34.212Z,58.99
2018-06-19T20:26:03.490Z,59.44
2018-06-19T20:28:33.043Z,59.68
2018-06-19T20:31:01.767Z,59.19
2018-06-19T20:33:30.471Z,59.72
2018-06-19T20:36:00.086Z,59.24
2018-06-19T20:38:28.681Z,58.72
2018-06-19T20:40:59.872Z,58.88
2018-06-19T20:43:28.439Z,58.82
2018-06-19T20:45:57.120Z,59.43
2018-06-19T20:48:25.755Z,59.14
2018-06-19T20:50:54.281Z,59.59
2018-06-19T20:53:22.919Z,59.86
2018-06-19T20:55:51.605Z,60.02
2018-06-19T20:58:20.190Z,60.91
2018-06-19T21:00:48.817Z,61.02
2018-06-19T21:03:18.023Z,60.24
2018-06-19T21:05:46.571Z,60.36
2018-06-19T21:08:16.007Z,60.87
2018-06-19T21:10:44.606Z,61.45
2018-06-19T21:13:14.158Z,61.01
2018-06-19T21:15:42.778Z,61.14
2018-06-19T21:18:11.311Z,61.01
2018-06-19T21:20:40.404Z,61.08
2018-06-19T21:23:09.062Z,61.37
2018-06-19T21:25:37.673Z,61.46
2018-06-19T21:28:06.300Z,61.78
2018-06-19T21:30:34.879Z,61.18
2018-06-19T21:33:03.575Z,61.16
2018-06-19T21:35:32.090Z,61.44
2018-06-19T21:38:00.627Z,60.87
2018-06-19T21:40:29.199Z,61.25
2018-06-19T21:42:57.752Z,61.70
2018-06-19T21:45:26.258Z,62.03
2018-06-19T21:47:54.918Z,62.21
2018-06-19T21:50:23.604Z,62.17
2018-06-19T21:52:52.210Z,62.43
2018-06-19T21:55:20.975Z,61.99
2018-06-19T21:57:49.556Z,61.63
2018-06-19T22:00:18.243Z,61.72
2018-06-19T22:02:46.926Z,62.26
2018-06-19T22:05:15.486Z,62.11
2018-06-19T22:07:43.991Z,61.63
2018-06-19T22:10:12.574Z,61.66
2018-06-19T22:12:41.175Z,61.83
2018-06-19T22:15:10.459Z,62.39
2018-06-19T22:17:39.137Z,62.56
2018-06-19T22:20:09.420Z,62.47
2018-06-19T22:22:38.135Z,63.17
2018-06-19T22:25:06.650Z,63.36
2018-06-19T22:27:35.254Z,62.42
2018-06-19T22:30:03.907Z,62.82
2018-06-19T22:32:32.538Z,63.22
2018-06-19T22:35:01.166Z,62.77
2018-06-19T22:37:29.853Z,63.15
2018-06-19T22:39:58.536Z,63.59
2018-06-19T22:42:27.122Z,63.65
2018-06-19T22:44:55.807Z,64.52
2018-06-19T22:47:24.349Z,64.22
2018-06-19T22:49:53.018Z,63.64
2018-06-19T22:52:22.884Z,65.05
2018-06-19T22:54:51.747Z,65.57
2018-06-19T22:57:20.669Z,64.88
2018-06-19T22:59:49.612Z,64.94
2018-06-19T23:02:18.244Z,64.04
2018-06-19T23:04:46.778Z,64.02
2018-06-19T23:07:15.394Z,63.54
2018-06-19T23:09:44.560Z,64.63
2018-06-19T23:12:13.126Z,64.19
2018-06-19T23:14:41.668Z,64.37
2018-06-19T23:17:10.338Z,63.99
2018-06-19T23:19:38.888Z,63.43
2018-06-19T23:22:07.580Z,63.81
2018-06-19T23:24:36.204Z,63.66
2018-06-19T23:27:04.830Z,63.93
2018-06-19T23:29:33.962Z,64.86
2018-06-19T23:32:02.567Z,65.16
2018-06-19T23:34:31.842Z,65.16
2018-06-19T23:37:00.451Z,65.30
2018-06-19T23:39:29.136Z,65.22
2018-06-19T23:41:57.730Z,64.91
2018-06-19T23:44:26.343Z,64.65
2018-06-19T23:46:55.088Z,64.90
2018-06-19T23:49:23.670Z,64.19
2018-06-19T23:51:52.225Z,64.16
2018-06-19T23:54:20.747Z,64.49
2018-06-19T23:56:49.354Z,63.59
2018-06-19T23:59:17.915Z,64.64
